Latest Weather Observations for Snowtown

IDS60801

Issued at 11:01 pm CDT Wednesday 10 February 2016 (issued every 30 minutes, with the page automatically refreshed every 10 minutes)

About weather observations | Map of weather stations | Latest weather observations for SA | Other Formats
Station Details ID: 021133 Name: RAYVILLE PARK Lat: -33.77 Lon: 138.22 Height: 109.1 m
Data from the previous 72 hours. | See also: Recent months at Snowtown
Date/Time
CDT
Temp
°C
App
Temp
°C
Dew
Point
Rel
Hum
%
Delta-T
°C
Wind Press
QNH
hPa
Press
MSL
hPa
Rain
since 9 am
mm
Dir
 
Spd
km/h
Gust
km/h
Spd
kts
Gust
kts
10/11:00pm 19.5 18.5 15.6 78 2.3 SSW 15 20 8 11 1014.3 1013.8 0.0
10/10:30pm 19.5 17.9 16.0 80 2.1 S 19 24 10 13 1014.4 1013.9 0.0
10/10:00pm 19.9 18.7 16.0 78 2.3 S 17 22 9 12 1014.3 1013.8 0.0
10/09:30pm 20.5 18.9 16.1 76 2.6 S 19 28 10 15 1014.1 1013.6 0.0
10/09:00pm 21.0 18.8 16.0 73 3.0 SSW 22 30 12 16 1013.8 1013.3 0.0
10/08:30pm 21.8 18.7 15.6 68 3.7 SSW 26 32 14 17 1013.6 1013.1 0.0
10/08:00pm 23.1 20.1 15.9 64 4.4 SSW 26 37 14 20 1013.2 1012.7 0.0
10/07:30pm 25.9 21.0 11.3 40 8.3 SSW 28 37 15 20 1012.9 1012.4 0.0
10/07:00pm 26.9 22.3 11.0 37 9.0 SSW 26 37 14 20 1012.6 1012.2 0.0
10/06:30pm 28.4 22.8 8.7 29 10.9 S 28 37 15 20 1012.2 1011.8 0.0
10/06:00pm 29.2 22.7 8.3 27 11.5 S 32 43 17 23 1012.0 1011.6 0.0
10/05:30pm 29.2 23.7 11.7 34 10.2 SSW 32 41 17 22 1011.8 1011.4 0.0
10/05:00pm 31.3 25.7 7.1 22 13.2 S 26 32 14 17 1011.5 1011.1 0.0
10/04:30pm 32.9 27.5 6.2 19 14.5 S 24 32 13 17 1011.5 1011.1 0.0
10/04:00pm 32.9 28.0 7.0 20 14.2 S 22 30 12 16 1011.6 1011.2 0.0
10/03:30pm 33.5 28.4 7.5 20 14.4 S 24 35 13 19 1011.8 1011.4 0.0
10/03:00pm 33.3 29.1 7.3 20 14.4 S 19 30 10 16 1012.2 1011.8 0.0
10/02:30pm 34.0 29.7 7.9 20 14.6 SSW 20 30 11 16 1012.3 1011.9 0.0
10/02:00pm 33.2 28.0 7.2 20 14.3 SSW 24 33 13 18 1012.5 1012.1 0.0
10/01:30pm 32.4 26.9 9.2 24 13.2 SSW 28 37 15 20 1012.7 1012.3 0.0
10/01:00pm 32.2 26.3 10.3 26 12.6 SSW 32 41 17 22 1013.0 1012.5 0.0
10/12:30pm 33.5 29.2 5.1 17 15.2 SSE 17 30 9 16 1013.2 1012.7 0.0
10/12:00pm 32.4 28.6 5.8 19 14.3 S 15 24 8 13 1013.5 1013.0 0.0
10/11:30am 31.3 28.0 6.4 21 13.4 S 13 17 7 9 1013.9 1013.4 0.0
10/11:00am 30.3 27.7 6.2 22 12.9 SE 9 13 5 7 1014.2 1013.7 0.0
10/10:30am 28.8 27.1 7.4 26 11.6 E 6 9 3 5 1014.4 1013.9 0.0
10/10:00am 26.7 25.2 8.6 32 9.9 SSE 6 11 3 6 1014.8 1014.3 0.0
10/09:30am 25.5 24.0 9.3 36 8.9 ESE 7 13 4 7 1014.9 1014.4 0.0
10/09:00am 23.6 23.3 12.6 50 6.3 S 6 11 3 6 1015.0 1014.5 0.0
10/08:30am 21.7 22.0 15.1 66 3.9 S 7 9 4 5 1015.0 1014.5 0.0
10/08:00am 20.1 20.4 16.1 78 2.4 SSW 9 11 5 6 1015.0 1014.5 0.0
10/07:30am 18.1 17.7 16.1 88 1.2 SW 13 15 7 8 1014.8 1014.3 0.0
10/07:00am 16.0 15.4 14.5 91 0.9 SW 11 13 6 7 1014.6 1014.1 0.0
10/06:30am 16.3 15.8 14.8 91 0.9 SW 11 13 6 7 1014.5 1014.0 0.0
10/06:00am 16.4 15.9 14.8 90 0.9 SW 11 13 6 7 1014.3 1013.8 0.0
10/05:30am 16.6 16.1 14.8 89 1.0 SW 11 13 6 7 1014.3 1013.8 0.0
10/05:00am 16.6 16.1 14.8 89 1.0 SW 11 15 6 8 1014.2 1013.7 0.0
10/04:30am 17.0 16.2 15.0 88 1.2 SW 13 15 7 8 1014.0 1013.5 0.0
10/04:00am 17.4 17.0 15.2 87 1.3 SW 11 13 6 7 1014.0 1013.5 0.0
10/03:30am 17.6 17.6 15.2 86 1.4 SW 9 13 5 7 1014.1 1013.6 0.0
10/03:00am 18.2 18.3 15.6 85 1.5 SW 9 13 5 7 1014.0 1013.5 0.0
10/02:30am 18.8 18.0 16.2 85 1.6 SW 15 17 8 9 1014.2 1013.7 0.0
10/02:00am 19.2 18.3 16.8 86 1.5 SW 17 19 9 10 1014.5 1014.0 0.0
10/01:30am 19.7 19.7 17.1 85 1.6 SW 13 17 7 9 1014.7 1014.2 0.0
10/01:00am 19.9 19.0 16.9 83 1.8 SSW 17 20 9 11 1015.0 1014.5 0.0
10/12:30am 19.9 19.2 16.5 81 2.1 SW 15 19 8 10 1015.1 1014.6 0.0
10/12:00am 20.3 20.2 16.9 81 2.1 SW 13 17 7 9 1015.4 1014.9 0.0
 
Date/Time
CDT
Temp
°C
App
Temp
°C
Dew
Point
Rel
Hum
%
Delta-T
°C
Wind Press
QNH
hPa
Press
MSL
hPa
Rain
since 9 am
mm
Dir
 
Spd
km/h
Gust
km/h
Spd
kts
Gust
kts
09/11:30pm 20.7 20.5 16.7 78 2.4 SW 13 17 7 9 1015.3 1014.8 0.0
09/11:00pm 21.3 20.0 16.9 76 2.7 SSW 19 24 10 13 1015.5 1015.0 0.0
09/10:30pm 21.6 20.2 16.6 73 3.0 SW 19 24 10 13 1015.4 1014.9 0.0
09/10:00pm 21.9 20.4 16.8 73 3.1 SW 20 24 11 13 1015.2 1014.7 0.0
09/09:30pm 22.1 21.1 16.6 71 3.4 SSW 17 24 9 13 1015.1 1014.6 0.0
09/09:00pm 22.5 20.6 15.1 63 4.4 SSW 19 24 10 13 1014.9 1014.4 0.0
09/08:30pm 23.6 20.7 15.1 59 5.1 SSW 24 30 13 16 1014.8 1014.3 0.0
09/08:00pm 25.6 23.5 14.7 51 6.5 SSW 19 28 10 15 1014.6 1014.1 0.0
09/07:30pm 27.9 24.8 14.5 44 8.1 SSW 24 30 13 16 1014.4 1013.9 0.0
09/07:00pm 29.3 25.2 13.9 39 9.3 SSW 28 37 15 20 1014.4 1013.9 0.0
09/06:30pm 30.9 26.5 12.8 33 10.8 SSW 28 39 15 21 1014.2 1013.7 0.0
09/06:00pm 32.6 27.2 12.3 29 12.1 SSW 32 39 17 21 1014.0 1013.5 0.0
09/05:30pm 34.0 28.9 11.8 26 13.2 SSW 30 37 16 20 1014.1 1013.6 0.0
09/05:00pm 35.3 30.1 10.4 22 14.6 S 28 35 15 19 1014.1 1013.6 0.0
09/04:30pm 36.2 31.6 8.1 18 15.9 S 22 30 12 16 1014.2 1013.7 0.0
09/04:00pm 37.3 33.1 8.2 17 16.6 SSW 20 32 11 17 1014.3 1013.8 0.0
09/03:30pm 37.2 33.2 8.1 17 16.6 SSW 19 35 10 19 1014.5 1014.0 0.0
09/03:00pm 38.2 34.2 5.0 13 18.1 W 15 24 8 13 1014.8 1014.3 0.0
09/02:40pm 37.1 32.2 4.1 13 17.7 WSW 19 41 10 22 1015.0 1014.5 0.0
09/02:30pm 37.2 33.7 5.3 14 17.4 NW 13 20 7 11 1015.2 1014.7 0.0
09/02:00pm 36.2 32.9 4.5 14 17.0 NNW 11 24 6 13 1015.6 1015.1 0.0
09/01:30pm 35.8 32.6 5.1 15 16.6 SSW 11 17 6 9 1015.9 1015.4 0.0
09/01:00pm 34.1 31.2 4.7 16 15.6 NNE 9 15 5 8 1016.5 1016.0 0.0
09/12:30pm 34.1 32.1 6.4 18 15.1 S 6 11 3 6 1016.9 1016.4 0.0
09/12:00pm 32.0 30.0 7.0 21 13.6 SE 7 15 4 8 1017.5 1017.0 0.0
09/11:30am 30.6 28.8 7.1 23 12.7 SSE 6 9 3 5 1017.9 1017.4 0.0
09/11:00am 29.0 27.2 8.1 27 11.4 SE 7 11 4 6 1018.3 1017.8 0.0
09/10:30am 27.6 26.0 8.0 29 10.6 ESE 6 13 3 7 1018.5 1018.1 0.0
09/10:00am 25.7 24.1 8.7 34 9.2 E 7 11 4 6 1018.9 1018.5 0.0
09/09:30am 24.0 21.9 8.4 37 8.3 ESE 9 11 5 6 1019.2 1018.8 0.0
09/09:00am 22.8 21.9 10.6 46 6.7 SSW 6 7 3 4 1019.3 1018.9 0.0
09/08:30am 20.0 18.7 11.2 57 4.8 SSW 9 11 5 6 1019.2 1018.8 0.0
09/08:00am 18.2 17.0 11.7 66 3.6 SW 9 11 5 6 1019.2 1018.8 0.0
09/07:30am 16.3 14.9 12.1 76 2.3 SW 11 15 6 8 1019.1 1018.7 0.0
09/07:00am 14.5 12.5 11.5 82 1.6 WSW 13 15 7 8 1018.9 1018.5 0.0
09/06:30am 14.1 12.5 11.6 85 1.3 WSW 11 13 6 7 1018.7 1018.3 0.0
09/06:00am 13.8 12.2 11.7 87 1.1 SW 11 13 6 7 1018.6 1018.2 0.0
09/05:30am 14.1 13.1 12.3 89 1.0 SW 9 13 5 7 1018.4 1017.9 0.0
09/05:00am 14.0 12.7 12.4 90 0.9 SW 11 13 6 7 1018.4 1017.9 0.0
09/04:30am 14.1 13.1 12.3 89 1.0 SW 9 11 5 6 1018.5 1018.1 0.0
09/04:00am 14.8 13.4 12.3 85 1.4 SW 11 13 6 7 1018.6 1018.2 0.0
09/03:30am 15.7 14.0 12.6 82 1.7 SSW 13 15 7 8 1018.7 1018.3 0.0
09/03:00am 15.8 14.1 12.5 81 1.8 SW 13 17 7 9 1018.9 1018.5 0.0
09/02:30am 16.8 14.3 11.1 69 3.1 SW 15 19 8 10 1019.1 1018.7 0.0
09/02:00am 16.8 14.3 10.9 68 3.2 SW 15 17 8 9 1019.3 1018.9 0.0
09/01:30am 17.3 14.8 11.1 67 3.4 SSW 15 20 8 11 1019.5 1019.1 0.0
09/01:00am 17.5 14.7 11.3 67 3.4 SSW 17 20 9 11 1019.7 1019.3 0.0
09/12:30am 18.0 15.4 13.1 73 2.8 SSW 19 22 10 12 1019.8 1019.4 0.0
09/12:00am 18.3 16.5 14.4 78 2.3 SW 17 19 9 10 1020.0 1019.6 0.0
 
Date/Time
CDT
Temp
°C
App
Temp
°C
Dew
Point
Rel
Hum
%
Delta-T
°C
Wind Press
QNH
hPa
Press
MSL
hPa
Rain
since 9 am
mm
Dir
 
Spd
km/h
Gust
km/h
Spd
kts
Gust
kts
08/11:30pm 19.1 17.4 14.6 75 2.6 SSW 17 22 9 12 1020.0 1019.6 0.0
08/11:00pm 19.7 17.4 14.7 73 2.9 SSW 20 26 11 14 1020.0 1019.6 0.0
08/10:30pm 20.2 17.1 14.6 70 3.3 SSW 24 30 13 16 1020.0 1019.6 0.0
08/10:00pm 20.6 17.9 14.7 69 3.5 SSW 22 32 12 17 1019.8 1019.4 0.0
08/09:30pm 20.7 18.5 14.8 69 3.5 SSW 20 28 11 15 1019.5 1019.1 0.0
08/09:00pm 21.0 18.2 14.4 66 3.9 SSW 22 32 12 17 1019.3 1018.9 0.0
08/08:30pm 21.6 18.3 14.0 62 4.4 SSW 24 33 13 18 1019.0 1018.6 0.0
08/08:00pm 22.5 18.9 14.1 59 4.9 SSW 26 33 14 18 1018.9 1018.5 0.0
08/07:30pm 23.4 18.9 13.8 54 5.6 SSW 30 37 16 20 1018.7 1018.3 0.0
08/07:00pm 24.3 19.3 13.5 51 6.3 SSW 32 39 17 21 1018.4 1017.9 0.0
08/06:30pm 25.2 20.0 13.4 48 6.9 SSW 33 43 18 23 1018.3 1017.8 0.0
08/06:00pm 26.0 20.9 13.2 45 7.5 SSW 32 41 17 22 1018.4 1017.9 0.0
08/05:30pm 26.8 21.4 12.8 42 8.2 SSW 33 41 18 22 1018.5 1018.1 0.0
08/05:00pm 27.1 21.7 12.3 39 8.6 SSW 32 41 17 22 1018.6 1018.2 0.0
08/04:30pm 27.6 22.7 12.4 39 8.9 SSW 30 43 16 23 1018.5 1018.1 0.0
08/04:00pm 28.6 23.7 12.5 37 9.5 SSW 30 39 16 21 1018.8 1018.4 0.0
08/03:30pm 27.9 23.0 12.7 39 8.9 SSW 30 39 16 21 1019.0 1018.6 0.0
08/03:00pm 28.7 24.3 13.0 38 9.3 SSW 28 37 15 20 1019.3 1018.9 0.0
08/02:30pm 29.8 25.6 13.5 36 9.8 SSW 28 35 15 19 1019.4 1019.0 0.0
08/02:00pm 28.9 24.3 12.3 36 9.7 SSW 28 35 15 19 1019.7 1019.3 0.0
08/01:30pm 28.7 24.3 13.0 38 9.3 SSW 28 33 15 18 1020.0 1019.6 0.0
08/01:00pm 28.5 24.4 12.8 38 9.3 SSW 26 35 14 19 1020.2 1019.8 0.0
08/12:30pm 28.1 24.2 10.8 34 9.8 S 22 33 12 18 1020.5 1020.1 0.0
08/12:00pm 27.7 24.2 10.9 35 9.5 S 20 33 11 18 1020.8 1020.4 0.0
08/11:30am 25.9 22.4 10.9 39 8.5 SSE 20 32 11 17 1021.1 1020.7 0.0
08/11:00am 25.1 21.2 10.9 41 8.0 SSE 22 30 12 16 1021.3 1020.9 0.0
08/10:30am 23.7 20.5 12.0 48 6.6 S 20 30 11 16 1021.4 1021.0 0.0
08/10:00am 21.8 18.9 12.9 57 5.1 S 20 30 11 16 1021.5 1021.1 0.0
08/09:30am 20.6 18.4 14.3 67 3.7 S 19 24 10 13 1021.7 1021.3 0.0
08/09:00am 19.1 17.2 14.1 73 2.9 S 17 24 9 13 1021.6 1021.2 0.0
08/08:30am 17.3 16.3 14.6 84 1.6 S 13 17 7 9 1021.4 1021.0 0.0
08/08:00am 16.7 16.2 14.9 89 1.0 SSW 11 13 6 7 1021.1 1020.7 0.0
08/07:30am 14.7 14.5 13.7 94 0.6 SSW 7 9 4 5 1020.9 1020.5 0.0
08/07:00am 13.3 12.0 12.4 94 0.5 WSW 11 13 6 7 1020.7 1020.3 0.0
08/06:30am 12.9 11.1 12.0 94 0.5 WSW 13 13 7 7 1020.5 1020.1 0.0
08/06:00am 13.3 12.0 12.5 95 0.4 WSW 11 13 6 7 1020.5 1020.1 0.0
08/05:30am 13.4 12.9 12.6 95 0.4 SW 7 9 4 5 1020.3 1019.9 0.0
08/05:00am 13.1 12.0 12.0 93 0.6 SW 9 11 5 6 1020.1 1019.7 0.0
08/04:30am 14.0 13.2 12.9 93 0.6 SSW 9 11 5 6 1020.2 1019.8 0.0
08/04:00am 14.9 14.3 13.4 91 0.8 S 9 13 5 7 1020.0 1019.6 0.0
08/03:30am 16.0 14.9 14.4 90 0.9 SSW 13 17 7 9 1019.8 1019.4 0.0
08/03:00am 15.0 14.7 13.4 90 0.9 SSW 7 11 4 6 1019.9 1019.5 0.0
08/02:30am 16.6 15.5 14.4 87 1.3 SSW 13 19 7 10 1020.0 1019.6 0.0
08/02:00am 16.4 15.7 14.4 88 1.1 SSW 11 15 6 8 1020.0 1019.6 0.0
08/01:30am 15.5 15.1 14.0 91 0.8 SSW 9 11 5 6 1020.2 1019.8 0.0
08/01:00am 16.3 15.5 15.0 92 0.8 SSW 13 17 7 9 1020.2 1019.8 0.0
08/12:30am 16.6 16.1 15.0 90 0.9 SW 11 13 6 7 1020.4 1020.0 0.0
08/12:00am 18.1 17.3 16.1 88 1.2 SSW 15 19 8 10 1020.4 1020.0 0.0
 
Date/Time
CDT
Temp
°C
App
Temp
°C
Dew
Point
Rel
Hum
%
Delta-T
°C
Wind Press
QNH
hPa
Press
MSL
hPa
Rain
since 9 am
mm
Dir
 
Spd
km/h
Gust
km/h
Spd
kts
Gust
kts
07/11:30pm 17.9 17.1 16.1 89 1.1 SSW 15 19 8 10 1020.4 1020.0 0.0

Other Formats:

Comma delimited format used in spreadsheet applications
http://www.bom.gov.au/fwo/IDS60801/IDS60801.95670.axf

JavaScript Object Notation format (JSON) in row-major order
http://www.bom.gov.au/fwo/IDS60801/IDS60801.95670.json